createdAt,value
2018-12-20T00:00:50.083Z,1.00
2018-12-20T00:03:19.698Z,0.98
2018-12-20T00:05:49.946Z,0.97
2018-12-20T00:08:19.530Z,0.98
2018-12-20T00:10:49.003Z,0.98
2018-12-20T00:13:18.576Z,0.95
2018-12-20T00:15:48.045Z,0.90
2018-12-20T00:18:17.383Z,0.96
2018-12-20T00:20:46.734Z,0.92
2018-12-20T00:23:16.200Z,0.92
2018-12-20T00:25:45.635Z,0.91
2018-12-20T00:28:15.035Z,0.93
2018-12-20T00:30:44.447Z,0.96
2018-12-20T00:33:13.986Z,0.98
2018-12-20T00:35:43.345Z,0.97
2018-12-20T00:38:12.909Z,0.96
2018-12-20T00:40:42.287Z,1.02
2018-12-20T00:43:11.930Z,1.08
2018-12-20T00:45:41.418Z,1.04
2018-12-20T00:48:10.821Z,1.02
2018-12-20T00:50:40.246Z,1.00
2018-12-20T00:53:09.733Z,1.02
2018-12-20T00:55:39.125Z,1.01
2018-12-20T00:58:08.577Z,1.00
2018-12-20T01:03:38.353Z,1.05
2018-12-20T01:06:07.910Z,1.05
2018-12-20T01:08:37.374Z,1.07
2018-12-20T01:11:07.377Z,1.09
2018-12-20T01:13:37.159Z,1.13
2018-12-20T01:16:06.676Z,1.09
2018-12-20T01:18:35.988Z,1.09
2018-12-20T01:21:05.574Z,1.04
2018-12-20T01:23:35.002Z,1.13
2018-12-20T01:26:04.950Z,1.15
2018-12-20T01:28:34.479Z,1.17
2018-12-20T01:31:04.034Z,1.12
2018-12-20T01:33:33.439Z,1.12
2018-12-20T01:36:02.834Z,1.08
2018-12-20T01:38:32.230Z,1.12
2018-12-20T01:41:01.563Z,1.11
2018-12-20T01:43:30.971Z,1.11
2018-12-20T01:46:00.534Z,1.13
2018-12-20T01:48:29.906Z,1.13
2018-12-20T01:50:59.445Z,1.13
2018-12-20T01:53:29.005Z,1.12
2018-12-20T01:55:58.445Z,1.10
2018-12-20T01:58:27.932Z,1.12
2018-12-20T02:00:57.351Z,1.15
2018-12-20T02:03:26.645Z,1.17
2018-12-20T02:05:55.940Z,1.14
2018-12-20T02:08:25.303Z,1.15
2018-12-20T02:10:54.676Z,1.15
2018-12-20T02:13:24.004Z,1.11
2018-12-20T02:15:53.534Z,1.11
2018-12-20T02:18:23.264Z,1.15
2018-12-20T02:20:52.834Z,1.13
2018-12-20T02:23:22.208Z,1.16
2018-12-20T02:25:51.510Z,1.18
2018-12-20T02:28:21.054Z,1.17
2018-12-20T02:30:50.442Z,1.19
2018-12-20T02:33:20.032Z,1.19
2018-12-20T02:35:49.488Z,1.21
2018-12-20T02:38:19.121Z,1.22
2018-12-20T02:40:48.478Z,1.23
2018-12-20T02:43:17.818Z,1.29
2018-12-20T02:45:47.270Z,1.32
2018-12-20T02:48:16.990Z,1.29
2018-12-20T02:50:46.302Z,1.27
2018-12-20T02:53:16.331Z,1.27
2018-12-20T02:55:45.697Z,1.26
2018-12-20T02:58:14.954Z,1.31
2018-12-20T03:00:44.282Z,1.29
2018-12-20T03:03:14.785Z,1.30
2018-12-20T03:05:44.385Z,1.31
2018-12-20T03:08:13.866Z,1.30
2018-12-20T03:10:43.240Z,1.30
2018-12-20T03:13:12.697Z,1.35
2018-12-20T03:15:42.123Z,1.34
2018-12-20T03:18:11.537Z,1.36
2018-12-20T03:20:41.137Z,1.38
2018-12-20T03:23:10.446Z,1.49
2018-12-20T03:25:39.962Z,1.45
2018-12-20T03:28:09.249Z,1.40
2018-12-20T03:30:38.851Z,1.39
2018-12-20T03:33:10.453Z,1.41
2018-12-20T03:35:39.748Z,1.34
2018-12-20T03:38:09.168Z,1.35
2018-12-20T03:40:38.770Z,1.32
2018-12-20T03:43:08.228Z,1.40
2018-12-20T03:45:38.594Z,1.41
2018-12-20T03:48:08.684Z,1.41
2018-12-20T03:50:38.097Z,1.45
2018-12-20T03:53:07.421Z,1.40
2018-12-20T03:55:36.868Z,1.42
2018-12-20T03:58:06.305Z,1.45
2018-12-20T04:00:35.646Z,1.47
2018-12-20T04:03:12.018Z,1.51
2018-12-20T04:08:25.528Z,1.54
2018-12-20T04:10:54.949Z,1.58
2018-12-20T04:13:24.558Z,1.58
2018-12-20T04:15:54.068Z,1.61
2018-12-20T04:18:23.359Z,1.63
2018-12-20T04:20:52.798Z,1.61
2018-12-20T04:23:22.124Z,1.59
2018-12-20T04:25:51.817Z,1.53
2018-12-20T04:28:21.161Z,1.54
2018-12-20T04:30:50.627Z,1.55
2018-12-20T04:33:20.033Z,1.59
2018-12-20T04:35:49.590Z,1.59
2018-12-20T04:38:19.263Z,1.59
2018-12-20T04:40:48.891Z,1.58
2018-12-20T04:43:18.180Z,1.59
2018-12-20T04:45:47.659Z,1.62
2018-12-20T04:48:16.984Z,1.63
2018-12-20T04:50:46.894Z,1.66
2018-12-20T04:53:16.317Z,1.64
2018-12-20T04:55:45.871Z,1.65
2018-12-20T04:58:15.422Z,1.68
2018-12-20T05:00:45.070Z,1.68
2018-12-20T05:03:14.417Z,1.74
2018-12-20T05:05:43.917Z,1.72
2018-12-20T05:08:13.369Z,1.70
2018-12-20T05:10:42.925Z,1.71
2018-12-20T05:13:12.251Z,1.73
2018-12-20T05:15:41.512Z,1.74
2018-12-20T05:18:11.047Z,1.76
2018-12-20T05:20:40.328Z,1.75
2018-12-20T05:23:09.910Z,1.74
2018-12-20T05:25:39.509Z,1.76
2018-12-20T05:28:08.841Z,1.80
2018-12-20T05:30:38.394Z,1.78
2018-12-20T05:33:07.865Z,1.80
2018-12-20T05:35:37.201Z,1.86
2018-12-20T05:38:06.471Z,1.91
2018-12-20T05:40:35.730Z,1.92
2018-12-20T05:43:05.206Z,1.95
2018-12-20T05:45:34.661Z,1.97
2018-12-20T05:48:04.365Z,1.99
2018-12-20T05:50:33.725Z,1.99
2018-12-20T05:53:03.203Z,2.01
2018-12-20T05:55:32.533Z,2.07
2018-12-20T05:58:01.855Z,2.06
2018-12-20T06:00:31.341Z,2.09
2018-12-20T06:03:00.643Z,2.11
2018-12-20T06:05:30.081Z,2.13
2018-12-20T06:07:59.576Z,2.18
2018-12-20T06:10:29.060Z,2.19
2018-12-20T06:12:58.414Z,2.21
2018-12-20T06:15:27.918Z,2.26
2018-12-20T06:17:57.222Z,2.28
2018-12-20T06:20:26.638Z,2.25
2018-12-20T06:22:56.477Z,2.28
2018-12-20T06:25:25.769Z,2.30
2018-12-20T06:27:55.011Z,2.36
2018-12-20T06:30:24.357Z,2.41
2018-12-20T06:32:53.686Z,2.48
2018-12-20T06:35:22.917Z,2.60
2018-12-20T06:37:53.043Z,2.64
2018-12-20T06:40:22.295Z,2.66
2018-12-20T06:42:51.546Z,2.72
2018-12-20T06:45:21.873Z,2.80
2018-12-20T06:47:51.189Z,2.91
2018-12-20T06:50:20.438Z,2.88
2018-12-20T06:52:49.727Z,2.88
2018-12-20T06:55:19.026Z,2.93
2018-12-20T06:57:48.654Z,2.93
2018-12-20T07:00:18.901Z,2.91
2018-12-20T07:02:48.126Z,2.92
2018-12-20T07:05:17.586Z,2.92
2018-12-20T07:07:47.088Z,2.94
2018-12-20T07:10:16.321Z,2.95
2018-12-20T07:12:45.584Z,2.98
2018-12-20T07:15:14.837Z,2.94
2018-12-20T07:17:44.177Z,2.94
2018-12-20T07:23:15.830Z,2.94
2018-12-20T07:25:45.294Z,2.94
2018-12-20T07:28:15.501Z,2.95
2018-12-20T07:30:44.757Z,2.98
2018-12-20T07:33:14.017Z,2.98
2018-12-20T07:35:43.741Z,2.98
2018-12-20T07:38:13.174Z,2.98
2018-12-20T07:40:42.826Z,2.99
2018-12-20T07:43:12.053Z,3.01
2018-12-20T07:45:42.168Z,2.99
2018-12-20T07:48:11.402Z,3.00
2018-12-20T07:50:40.743Z,2.98
2018-12-20T07:53:10.006Z,3.00
2018-12-20T07:55:39.266Z,3.04
2018-12-20T07:58:08.534Z,3.08
2018-12-20T08:00:37.867Z,3.12
2018-12-20T08:03:07.157Z,3.14
2018-12-20T08:05:36.425Z,3.15
2018-12-20T08:08:05.831Z,3.19
2018-12-20T08:10:35.106Z,3.18
2018-12-20T08:13:04.447Z,3.20
2018-12-20T08:15:33.794Z,3.25
2018-12-20T08:18:03.191Z,3.26
2018-12-20T08:20:32.555Z,3.27
2018-12-20T08:23:01.983Z,3.29
2018-12-20T08:25:31.525Z,3.29
2018-12-20T08:28:01.701Z,3.32
2018-12-20T08:30:30.990Z,3.32
2018-12-20T08:33:00.303Z,3.31
2018-12-20T08:35:29.687Z,3.32
2018-12-20T08:37:59.055Z,3.33
2018-12-20T08:40:28.438Z,3.34
2018-12-20T08:42:57.718Z,3.37
2018-12-20T08:45:27.126Z,3.35
2018-12-20T08:47:56.509Z,3.39
2018-12-20T08:50:25.979Z,3.41
2018-12-20T08:52:55.261Z,3.42
2018-12-20T08:55:24.503Z,3.43
2018-12-20T08:57:53.843Z,3.48
2018-12-20T09:00:23.143Z,3.51
2018-12-20T09:02:52.462Z,3.48
2018-12-20T09:05:21.935Z,3.54
2018-12-20T09:07:51.416Z,3.68
2018-12-20T09:10:20.940Z,3.71
2018-12-20T09:12:50.969Z,3.99
2018-12-20T09:15:20.206Z,4.18
2018-12-20T09:17:49.515Z,4.28
2018-12-20T09:20:18.942Z,4.20
2018-12-20T09:22:48.197Z,4.30
2018-12-20T09:25:17.548Z,4.49
2018-12-20T09:27:46.789Z,4.63
2018-12-20T09:30:16.120Z,4.43
2018-12-20T09:32:45.346Z,4.23
2018-12-20T09:35:14.737Z,4.09
2018-12-20T09:37:44.155Z,4.13
2018-12-20T09:40:13.559Z,4.04
2018-12-20T09:42:42.858Z,4.08
2018-12-20T09:45:12.223Z,4.10
2018-12-20T09:47:46.810Z,4.14
2018-12-20T09:50:16.069Z,4.23
2018-12-20T09:52:45.400Z,4.16
2018-12-20T09:55:14.848Z,4.18
2018-12-20T09:57:44.170Z,4.27
2018-12-20T10:00:13.438Z,4.31
2018-12-20T10:02:42.738Z,4.32
2018-12-20T10:05:12.105Z,4.37
2018-12-20T10:07:41.365Z,4.41
2018-12-20T10:10:10.809Z,4.44
2018-12-20T10:12:40.231Z,4.45
2018-12-20T10:15:09.679Z,4.49
2018-12-20T10:17:39.019Z,4.50
2018-12-20T10:20:12.214Z,4.53
2018-12-20T10:22:42.544Z,4.54
2018-12-20T10:25:12.150Z,4.56
2018-12-20T10:27:41.405Z,4.64
2018-12-20T10:30:11.399Z,4.73
2018-12-20T10:32:40.771Z,4.83
2018-12-20T10:35:10.066Z,4.97
2018-12-20T10:37:39.319Z,5.03
2018-12-20T10:40:08.921Z,5.04
2018-12-20T10:42:38.155Z,5.08
2018-12-20T10:45:08.485Z,5.11
2018-12-20T10:47:37.855Z,5.10
2018-12-20T10:50:08.862Z,5.08
2018-12-20T10:52:38.171Z,5.03
2018-12-20T10:55:07.627Z,5.03
2018-12-20T10:57:37.193Z,5.02
2018-12-20T11:00:07.667Z,5.02
2018-12-20T11:03:42.670Z,5.02
2018-12-20T11:09:37.208Z,5.06
2018-12-20T11:12:08.897Z,5.03
2018-12-20T11:14:38.800Z,5.04
2018-12-20T11:17:08.218Z,5.04
2018-12-20T11:19:37.461Z,5.04
2018-12-20T11:22:06.843Z,5.10
2018-12-20T11:24:36.170Z,5.17
2018-12-20T11:27:05.657Z,5.24
2018-12-20T11:29:34.892Z,5.29
2018-12-20T11:32:04.330Z,5.33
2018-12-20T11:34:33.702Z,5.43
2018-12-20T11:37:02.990Z,5.60
2018-12-20T11:39:32.291Z,5.69
2018-12-20T11:42:01.558Z,5.78
2018-12-20T11:44:30.842Z,5.78
2018-12-20T11:47:00.165Z,5.85
2018-12-20T11:49:29.498Z,5.82
2018-12-20T11:51:58.903Z,5.82
2018-12-20T11:54:28.161Z,5.80
2018-12-20T11:56:57.510Z,5.79
2018-12-20T11:59:26.829Z,5.83
2018-12-20T12:01:56.203Z,5.88
2018-12-20T12:04:25.454Z,5.93
2018-12-20T12:06:54.973Z,6.03
2018-12-20T12:09:25.527Z,6.09
2018-12-20T12:11:55.034Z,6.18
2018-12-20T12:14:24.308Z,6.26
2018-12-20T12:16:53.639Z,6.20
2018-12-20T12:19:22.937Z,6.26
2018-12-20T12:21:52.193Z,6.11
2018-12-20T12:24:21.453Z,6.08
2018-12-20T12:26:50.846Z,6.06
2018-12-20T12:29:20.203Z,6.06
2018-12-20T12:31:49.531Z,6.11
2018-12-20T12:34:18.841Z,6.12
2018-12-20T12:36:48.277Z,6.09
2018-12-20T12:39:17.763Z,6.06
2018-12-20T12:41:47.074Z,6.02
2018-12-20T12:44:16.356Z,6.00
2018-12-20T12:46:45.603Z,5.96
2018-12-20T12:49:14.897Z,5.94
2018-12-20T12:51:52.863Z,5.92
2018-12-20T12:54:15.893Z,5.94
2018-12-20T12:56:45.292Z,5.93
2018-12-20T12:59:14.551Z,5.92
2018-12-20T13:01:43.866Z,5.89
2018-12-20T13:04:13.263Z,5.90
2018-12-20T13:06:43.211Z,5.87
2018-12-20T13:09:12.677Z,5.86
2018-12-20T13:11:42.192Z,5.90
2018-12-20T13:14:11.626Z,5.89
2018-12-20T13:16:41.099Z,5.89
2018-12-20T13:19:10.514Z,5.89
2018-12-20T13:21:39.950Z,5.88
2018-12-20T13:24:09.578Z,5.88
2018-12-20T13:26:39.209Z,5.88
2018-12-20T13:29:08.621Z,5.86
2018-12-20T13:31:38.134Z,5.86
2018-12-20T13:34:07.428Z,5.85
2018-12-20T13:36:36.875Z,5.83
2018-12-20T13:39:08.485Z,5.85
2018-12-20T13:41:37.761Z,5.83
2018-12-20T13:44:07.038Z,5.85
2018-12-20T13:46:39.494Z,5.82
2018-12-20T13:49:08.978Z,5.80
2018-12-20T13:51:38.503Z,5.79
2018-12-20T13:54:07.899Z,5.78
2018-12-20T13:56:37.185Z,5.76
2018-12-20T13:59:06.479Z,5.73
2018-12-20T14:01:36.101Z,5.72
2018-12-20T14:04:06.424Z,5.73
2018-12-20T14:06:36.847Z,5.72
2018-12-20T14:09:09.792Z,5.73
2018-12-20T14:11:39.273Z,5.69
2018-12-20T14:14:08.538Z,5.72
2018-12-20T14:16:37.872Z,5.72
2018-12-20T14:19:07.321Z,5.67
2018-12-20T14:21:36.603Z,5.71
2018-12-20T14:24:05.874Z,5.72
2018-12-20T14:26:35.240Z,5.70
2018-12-20T14:29:04.706Z,5.67
2018-12-20T14:31:33.966Z,5.69
2018-12-20T14:34:03.323Z,5.70
2018-12-20T14:36:32.699Z,5.65
2018-12-20T14:39:02.285Z,5.64
2018-12-20T14:41:31.840Z,5.62
2018-12-20T14:44:01.266Z,5.61
2018-12-20T14:46:30.660Z,5.61
2018-12-20T14:48:59.970Z,5.60
2018-12-20T14:51:29.381Z,5.57
2018-12-20T14:53:58.679Z,5.49
2018-12-20T14:56:28.987Z,5.45
2018-12-20T14:58:58.306Z,5.46
2018-12-20T15:01:27.694Z,5.43
2018-12-20T15:06:51.338Z,5.41
2018-12-20T15:09:20.713Z,5.39
2018-12-20T15:11:49.987Z,5.38
2018-12-20T15:14:19.322Z,5.35
2018-12-20T15:16:48.653Z,5.31
2018-12-20T15:19:17.966Z,5.27
2018-12-20T15:21:47.411Z,5.23
2018-12-20T15:24:16.741Z,5.21
2018-12-20T15:26:46.082Z,5.22
2018-12-20T15:29:15.362Z,5.26
2018-12-20T15:31:53.168Z,5.28
2018-12-20T15:34:16.847Z,5.25
2018-12-20T15:36:46.187Z,5.24
2018-12-20T15:39:15.579Z,5.26
2018-12-20T15:41:44.966Z,5.26
2018-12-20T15:44:14.354Z,5.27
2018-12-20T15:46:43.758Z,5.23
2018-12-20T15:49:13.396Z,5.16
2018-12-20T15:51:43.236Z,5.09
2018-12-20T15:54:12.541Z,5.02
2018-12-20T15:56:41.819Z,5.01
2018-12-20T15:59:11.391Z,4.97
2018-12-20T16:01:40.826Z,5.02
2018-12-20T16:04:10.228Z,5.17
2018-12-20T16:06:39.526Z,5.21
2018-12-20T16:09:09.115Z,5.20
2018-12-20T16:11:38.412Z,5.17
2018-12-20T16:14:07.729Z,5.06
2018-12-20T16:16:37.165Z,4.93
2018-12-20T16:19:06.477Z,4.80
2018-12-20T16:21:35.855Z,4.70
2018-12-20T16:24:05.366Z,4.61
2018-12-20T16:26:34.745Z,4.70
2018-12-20T16:29:04.177Z,4.77
2018-12-20T16:31:33.451Z,4.91
2018-12-20T16:34:03.307Z,5.02
2018-12-20T16:36:32.823Z,5.10
2018-12-20T16:39:02.165Z,5.08
2018-12-20T16:41:32.228Z,5.06
2018-12-20T16:44:02.622Z,4.93
2018-12-20T16:46:32.697Z,4.80
2018-12-20T16:49:02.009Z,4.70
2018-12-20T16:51:31.388Z,4.67
2018-12-20T16:54:00.672Z,4.69
2018-12-20T16:56:31.185Z,4.55
2018-12-20T16:59:00.447Z,4.43
2018-12-20T17:01:29.746Z,4.36
2018-12-20T17:03:59.013Z,4.24
2018-12-20T17:06:28.360Z,4.14
2018-12-20T17:08:57.625Z,4.14
2018-12-20T17:11:26.954Z,4.12
2018-12-20T17:13:56.307Z,4.11
2018-12-20T17:16:25.585Z,4.18
2018-12-20T17:18:54.944Z,4.14
2018-12-20T17:21:24.286Z,4.16
2018-12-20T17:23:53.551Z,4.17
2018-12-20T17:26:22.785Z,4.13
2018-12-20T17:28:53.357Z,4.11
2018-12-20T17:31:22.666Z,4.13
2018-12-20T17:33:51.919Z,4.13
2018-12-20T17:36:21.275Z,4.12
2018-12-20T17:38:50.645Z,4.07
2018-12-20T17:41:19.936Z,4.03
2018-12-20T17:43:49.214Z,4.04
2018-12-20T17:46:18.502Z,3.81
2018-12-20T17:48:47.798Z,3.59
2018-12-20T17:51:17.681Z,3.40
2018-12-20T17:53:47.157Z,3.23
2018-12-20T17:56:16.415Z,3.15
2018-12-20T17:58:45.706Z,3.12
2018-12-20T18:01:15.978Z,3.15
2018-12-20T18:03:45.311Z,3.14
2018-12-20T18:06:14.678Z,3.09
2018-12-20T18:08:43.938Z,3.06
2018-12-20T18:11:13.436Z,3.04
2018-12-20T18:13:42.702Z,3.02
2018-12-20T18:16:11.976Z,3.03
2018-12-20T18:18:41.581Z,3.07
2018-12-20T18:21:11.034Z,3.21
2018-12-20T18:23:40.477Z,3.21
2018-12-20T18:26:09.841Z,3.30
2018-12-20T18:28:39.113Z,3.16
2018-12-20T18:31:08.686Z,3.14
2018-12-20T18:33:38.078Z,3.27
2018-12-20T18:36:07.430Z,3.25
2018-12-20T18:38:36.830Z,3.24
2018-12-20T18:41:06.122Z,3.40
2018-12-20T18:43:35.448Z,3.42
2018-12-20T18:46:04.844Z,3.47
2018-12-20T18:48:34.300Z,3.56
2018-12-20T18:51:05.134Z,3.53
2018-12-20T18:53:35.367Z,3.45
2018-12-20T18:56:04.791Z,3.48
2018-12-20T18:58:34.142Z,3.53
2018-12-20T19:01:03.562Z,3.57
2018-12-20T19:03:33.021Z,3.50
2018-12-20T19:06:02.292Z,3.46
2018-12-20T19:08:31.574Z,3.54
2018-12-20T19:11:00.855Z,3.72
2018-12-20T19:13:30.368Z,4.01
2018-12-20T19:15:59.711Z,4.14
2018-12-20T19:18:28.997Z,4.29
2018-12-20T19:20:59.170Z,4.49
2018-12-20T19:23:28.407Z,4.74
2018-12-20T19:25:57.765Z,4.81
2018-12-20T19:28:27.008Z,4.81
2018-12-20T19:30:56.247Z,4.78
2018-12-20T19:33:25.682Z,4.78
2018-12-20T19:35:54.930Z,4.75
2018-12-20T19:38:24.182Z,4.67
2018-12-20T19:40:53.426Z,4.68
2018-12-20T19:43:22.677Z,4.84
2018-12-20T19:45:52.062Z,4.79
2018-12-20T19:48:21.386Z,4.79
2018-12-20T19:50:50.629Z,4.63
2018-12-20T19:53:19.895Z,4.55
2018-12-20T19:55:49.153Z,4.53
2018-12-20T19:58:18.445Z,4.58
2018-12-20T20:00:47.674Z,4.56
2018-12-20T20:03:16.930Z,4.56
2018-12-20T20:05:46.228Z,4.48
2018-12-20T20:08:22.153Z,4.35
2018-12-20T20:10:51.398Z,4.26
2018-12-20T20:13:20.750Z,4.17
2018-12-20T20:15:50.075Z,4.16
2018-12-20T20:18:19.328Z,4.13
2018-12-20T20:20:48.600Z,4.12
2018-12-20T20:23:17.912Z,4.10
2018-12-20T20:29:38.859Z,4.08
2018-12-20T20:32:08.178Z,4.06
2018-12-20T20:34:37.458Z,3.99
2018-12-20T20:37:06.738Z,3.87
2018-12-20T20:39:36.104Z,3.80
2018-12-20T20:42:05.567Z,3.76
2018-12-20T20:44:34.981Z,3.63
2018-12-20T20:47:04.600Z,3.45
2018-12-20T20:49:34.092Z,3.31
2018-12-20T20:52:03.365Z,3.26
2018-12-20T20:54:32.623Z,3.13
2018-12-20T20:57:01.906Z,2.93
2018-12-20T20:59:32.119Z,2.83
2018-12-20T21:02:01.509Z,2.75
2018-12-20T21:04:37.658Z,2.58
2018-12-20T21:07:06.939Z,2.48
2018-12-20T21:09:36.343Z,2.39
2018-12-20T21:12:06.329Z,2.26
2018-12-20T21:14:35.814Z,2.15
2018-12-20T21:17:05.210Z,2.13
2018-12-20T21:19:34.561Z,2.24
2018-12-20T21:22:03.942Z,2.39
2018-12-20T21:24:33.315Z,2.45
2018-12-20T21:27:02.574Z,2.44
2018-12-20T21:29:31.855Z,2.47
2018-12-20T21:32:01.229Z,2.56
2018-12-20T21:34:30.497Z,2.73
2018-12-20T21:36:59.841Z,2.83
2018-12-20T21:39:29.127Z,2.88
2018-12-20T21:41:58.542Z,2.88
2018-12-20T21:44:27.799Z,2.85
2018-12-20T21:46:57.113Z,2.86
2018-12-20T21:49:26.514Z,2.84
2018-12-20T21:51:55.838Z,2.82
2018-12-20T21:54:25.102Z,2.72
2018-12-20T21:56:54.482Z,2.70
2018-12-20T21:59:24.408Z,2.72
2018-12-20T22:01:54.300Z,2.84
2018-12-20T22:04:23.674Z,2.97
2018-12-20T22:06:52.929Z,3.06
2018-12-20T22:09:22.433Z,3.00
2018-12-20T22:11:51.767Z,2.95
2018-12-20T22:14:21.071Z,2.95
2018-12-20T22:16:50.380Z,2.94
2018-12-20T22:19:19.731Z,2.93
2018-12-20T22:21:49.012Z,2.87
2018-12-20T22:24:18.411Z,2.75
2018-12-20T22:26:47.885Z,2.63
2018-12-20T22:29:17.151Z,2.55
2018-12-20T22:31:46.470Z,2.63
2018-12-20T22:34:16.110Z,2.62
2018-12-20T22:36:45.365Z,2.60
2018-12-20T22:39:14.727Z,2.67
2018-12-20T22:41:44.018Z,2.70
2018-12-20T22:44:13.303Z,2.76
2018-12-20T22:46:42.676Z,2.67
2018-12-20T22:49:11.950Z,2.61
2018-12-20T22:51:41.481Z,2.63
2018-12-20T22:54:10.774Z,2.58
2018-12-20T22:56:40.050Z,2.55
2018-12-20T22:59:09.303Z,2.47
2018-12-20T23:01:38.530Z,2.38
2018-12-20T23:04:07.886Z,2.48
2018-12-20T23:06:37.402Z,2.45
2018-12-20T23:09:07.282Z,2.48
2018-12-20T23:11:36.548Z,2.52
2018-12-20T23:14:06.002Z,2.55
2018-12-20T23:16:35.267Z,2.66
2018-12-20T23:19:04.625Z,2.64
2018-12-20T23:21:34.201Z,2.66
2018-12-20T23:24:03.561Z,2.62
2018-12-20T23:26:32.937Z,2.57
2018-12-20T23:29:02.229Z,2.54
2018-12-20T23:31:31.516Z,2.40
2018-12-20T23:34:00.988Z,2.31
2018-12-20T23:36:30.360Z,2.35
2018-12-20T23:38:59.737Z,2.38
2018-12-20T23:41:28.998Z,2.26
2018-12-20T23:43:58.342Z,2.25
2018-12-20T23:46:27.638Z,2.46
2018-12-20T23:48:56.921Z,2.54
2018-12-20T23:51:26.178Z,2.58
2018-12-20T23:53:56.174Z,2.48
2018-12-20T23:56:25.554Z,2.43
2018-12-20T23:58:54.879Z,2.25
